createdAt,value
2022-11-15T00:00:00.476Z,40.33
2022-11-15T00:02:48.647Z,38.35
2022-11-15T00:05:37.160Z,31.30
2022-11-15T00:08:24.564Z,35.55
2022-11-15T00:11:13.637Z,41.97
2022-11-15T00:14:03.424Z,39.92
2022-11-15T00:16:50.642Z,40.92
2022-11-15T00:19:38.209Z,50.70
2022-11-15T00:22:25.643Z,59.95
2022-11-15T00:25:12.904Z,62.30
2022-11-15T00:28:01.007Z,63.50
2022-11-15T00:30:49.999Z,50.05
2022-11-15T00:33:37.332Z,67.53
2022-11-15T00:36:24.752Z,54.20
2022-11-15T00:39:12.059Z,66.15
2022-11-15T00:41:59.675Z,69.40
2022-11-15T00:44:47.101Z,60.55
2022-11-15T00:47:36.130Z,57.63
2022-11-15T00:50:23.304Z,53.80
2022-11-15T00:53:10.476Z,37.63
2022-11-15T00:55:57.719Z,45.45
2022-11-15T00:58:45.038Z,49.72
2022-11-15T01:01:32.218Z,48.05
2022-11-15T01:04:20.739Z,37.50
2022-11-15T01:07:08.521Z,34.00
2022-11-15T01:09:55.980Z,39.60
2022-11-15T01:12:43.394Z,21.70
2022-11-15T01:15:30.840Z,29.05
2022-11-15T01:18:18.101Z,28.95
2022-11-15T01:21:10.916Z,24.90
2022-11-15T01:23:59.397Z,32.50
2022-11-15T01:26:46.782Z,30.02
2022-11-15T01:29:34.552Z,33.30
2022-11-15T01:32:21.766Z,27.52
2022-11-15T01:35:09.659Z,24.02
2022-11-15T01:37:58.486Z,32.17
2022-11-15T01:40:46.047Z,26.95
2022-11-15T01:43:35.262Z,22.52
2022-11-15T01:46:33.935Z,26.70
2022-11-15T01:49:24.702Z,28.45
2022-11-15T01:52:17.321Z,37.03
2022-11-15T01:55:10.080Z,25.05
2022-11-15T01:58:02.291Z,21.50
2022-11-15T02:00:51.211Z,25.38
2022-11-15T02:03:46.715Z,28.98
2022-11-15T02:06:34.892Z,41.20
2022-11-15T02:09:22.117Z,40.42
2022-11-15T02:12:13.499Z,34.58
2022-11-15T02:15:01.365Z,28.58
2022-11-15T02:18:00.374Z,30.30
2022-11-15T02:21:00.664Z,31.95
2022-11-15T02:24:16.094Z,35.67
2022-11-15T02:27:44.298Z,40.47
2022-11-15T02:30:43.302Z,46.22
2022-11-15T02:33:37.679Z,44.50
2022-11-15T02:36:37.184Z,50.55
2022-11-15T02:39:35.091Z,39.72
2022-11-15T02:42:44.975Z,30.75
2022-11-15T02:45:39.299Z,32.63
2022-11-15T02:48:28.361Z,43.33
2022-11-15T02:51:16.893Z,45.67
2022-11-15T02:54:04.505Z,39.30
2022-11-15T02:56:55.177Z,34.38
2022-11-15T03:00:06.779Z,31.42
2022-11-15T03:03:08.342Z,32.63
2022-11-15T03:06:03.872Z,33.72
2022-11-15T03:09:04.170Z,31.38
2022-11-15T03:11:58.636Z,31.33
2022-11-15T03:14:55.150Z,37.75
2022-11-15T03:17:50.124Z,26.40
2022-11-15T03:20:39.471Z,23.07
2022-11-15T03:23:28.123Z,30.02
2022-11-15T03:26:18.482Z,45.47
2022-11-15T03:29:10.607Z,39.30
2022-11-15T03:32:02.504Z,43.72
2022-11-15T03:34:54.167Z,54.95
2022-11-15T03:37:48.014Z,47.83
2022-11-15T03:40:39.809Z,37.97
2022-11-15T03:43:36.438Z,36.58
2022-11-15T03:46:30.001Z,24.75
2022-11-15T03:49:22.211Z,27.40
2022-11-15T03:52:10.049Z,38.35
2022-11-15T03:54:59.142Z,37.13
2022-11-15T03:57:47.204Z,28.70
2022-11-15T04:00:34.565Z,35.10
2022-11-15T04:03:22.015Z,38.67
2022-11-15T04:06:09.600Z,33.90
2022-11-15T04:08:56.811Z,44.63
2022-11-15T04:11:45.457Z,45.47
2022-11-15T04:14:33.029Z,44.85
2022-11-15T04:17:20.323Z,40.60
2022-11-15T04:20:28.008Z,31.10
2022-11-15T04:23:35.848Z,33.38
2022-11-15T04:26:25.302Z,38.75
2022-11-15T04:29:32.135Z,37.22
2022-11-15T04:32:19.447Z,37.20
2022-11-15T04:35:07.807Z,34.08
2022-11-15T04:37:55.816Z,27.42
2022-11-15T04:40:43.236Z,36.42
2022-11-15T04:43:31.365Z,37.65
2022-11-15T04:46:20.826Z,37.05
2022-11-15T04:49:08.265Z,50.47
2022-11-15T04:51:55.832Z,42.17
2022-11-15T04:54:44.002Z,30.98
2022-11-15T04:57:31.701Z,28.42
2022-11-15T05:00:19.814Z,34.97
2022-11-15T05:03:26.409Z,35.78
2022-11-15T05:06:14.088Z,32.83
2022-11-15T05:09:01.985Z,36.45
2022-11-15T05:11:49.921Z,31.70
2022-11-15T05:14:37.102Z,41.55
2022-11-15T05:17:24.661Z,52.22
2022-11-15T05:20:14.209Z,48.53
2022-11-15T05:23:02.045Z,56.08
2022-11-15T05:25:49.299Z,45.15
2022-11-15T05:28:38.170Z,47.95
2022-11-15T05:31:26.320Z,42.00
2022-11-15T05:34:14.033Z,44.95
2022-11-15T05:37:03.303Z,47.60
2022-11-15T05:39:50.328Z,34.55
2022-11-15T05:42:37.784Z,31.80
2022-11-15T05:45:27.161Z,33.90
2022-11-15T05:48:15.933Z,44.42
2022-11-15T05:51:04.619Z,50.08
2022-11-15T05:53:55.032Z,40.58
2022-11-15T05:56:42.574Z,46.72
2022-11-15T05:59:31.883Z,51.17
2022-11-15T06:02:19.283Z,50.10
2022-11-15T06:05:07.289Z,41.92
2022-11-15T06:07:54.922Z,34.78
2022-11-15T06:10:43.782Z,39.70
2022-11-15T06:13:31.564Z,41.38
2022-11-15T06:16:18.825Z,39.08
2022-11-15T06:19:08.080Z,36.85
2022-11-15T06:21:55.233Z,37.78
2022-11-15T06:24:44.928Z,32.08
2022-11-15T06:27:34.193Z,28.05
2022-11-15T06:30:21.753Z,36.65
2022-11-15T06:33:09.861Z,27.80
2022-11-15T06:35:57.411Z,36.05
2022-11-15T06:38:45.087Z,35.30
2022-11-15T06:41:32.509Z,38.28
2022-11-15T06:44:21.240Z,35.45
2022-11-15T06:47:08.668Z,33.03
2022-11-15T06:49:56.160Z,33.80
2022-11-15T06:52:43.424Z,34.30
2022-11-15T06:55:30.633Z,26.63
2022-11-15T06:58:24.420Z,34.17
2022-11-15T07:01:14.376Z,25.45
2022-11-15T07:04:02.083Z,35.78
2022-11-15T07:06:52.131Z,22.42
2022-11-15T07:09:39.489Z,21.13
2022-11-15T07:12:27.272Z,24.38
2022-11-15T07:15:14.888Z,27.17
2022-11-15T07:18:05.049Z,28.77
2022-11-15T07:20:52.335Z,25.80
2022-11-15T07:23:40.376Z,23.85
2022-11-15T07:26:27.856Z,18.38
2022-11-15T07:29:15.288Z,22.95
2022-11-15T07:32:03.312Z,26.63
2022-11-15T07:34:51.960Z,23.55
2022-11-15T07:37:39.224Z,21.05
2022-11-15T07:40:27.170Z,30.67
2022-11-15T07:43:14.990Z,19.08
2022-11-15T07:46:08.597Z,23.23
2022-11-15T07:48:55.912Z,18.92
2022-11-15T07:51:44.675Z,21.83
2022-11-15T07:54:31.884Z,27.02
2022-11-15T07:57:19.498Z,20.40
2022-11-15T08:00:08.275Z,26.25
2022-11-15T08:03:03.359Z,23.08
2022-11-15T08:05:53.579Z,15.10
2022-11-15T08:08:42.222Z,26.33
2022-11-15T08:11:29.652Z,25.63
2022-11-15T08:14:17.165Z,24.23
2022-11-15T08:17:04.892Z,22.35
2022-11-15T08:19:52.223Z,23.63
2022-11-15T08:22:39.753Z,19.20
2022-11-15T08:25:29.998Z,21.58
2022-11-15T08:28:19.382Z,28.67
2022-11-15T08:31:07.269Z,23.27
2022-11-15T08:33:54.980Z,22.63
2022-11-15T08:36:45.880Z,25.80
2022-11-15T08:39:33.512Z,26.33
2022-11-15T08:42:22.361Z,24.80
2022-11-15T08:45:10.888Z,25.60
2022-11-15T08:47:58.367Z,32.05
2022-11-15T08:50:45.619Z,21.70
2022-11-15T08:53:33.573Z,25.85
2022-11-15T08:56:21.053Z,20.83
2022-11-15T08:59:09.730Z,24.52
2022-11-15T09:01:56.973Z,27.35
2022-11-15T09:04:45.344Z,29.63
2022-11-15T09:07:32.934Z,28.05
2022-11-15T09:10:20.606Z,22.70
2022-11-15T09:13:07.826Z,39.03
2022-11-15T09:15:59.737Z,37.35
2022-11-15T09:18:46.885Z,31.83
2022-11-15T09:21:34.643Z,33.95
2022-11-15T09:24:22.001Z,29.88
2022-11-15T09:27:09.225Z,40.85
2022-11-15T09:29:56.658Z,31.85
2022-11-15T09:32:45.349Z,28.48
2022-11-15T09:35:33.777Z,24.02
2022-11-15T09:38:21.643Z,29.25
2022-11-15T09:41:31.775Z,33.60
2022-11-15T09:44:48.512Z,31.27
2022-11-15T09:50:50.178Z,33.28
2022-11-15T09:56:18.962Z,32.92
2022-11-15T09:58:57.532Z,32.08
2022-11-15T10:01:38.440Z,37.05
2022-11-15T10:04:10.756Z,31.75
2022-11-15T10:06:50.072Z,26.45
2022-11-15T10:09:26.242Z,23.73
2022-11-15T10:11:55.315Z,17.42
2022-11-15T10:14:27.473Z,20.10
2022-11-15T10:17:32.268Z,32.65
2022-11-15T10:20:11.659Z,21.52
2022-11-15T10:22:47.990Z,22.00
2022-11-15T10:25:24.985Z,27.00
2022-11-15T10:28:00.216Z,18.67
2022-11-15T10:30:35.610Z,23.23
2022-11-15T10:33:21.955Z,19.05
2022-11-15T10:35:50.812Z,17.73
2022-11-15T10:38:20.990Z,14.77
2022-11-15T10:40:49.760Z,21.85
2022-11-15T10:43:21.078Z,24.05
2022-11-15T10:45:51.799Z,20.77
2022-11-15T10:48:27.386Z,22.05
2022-11-15T10:50:57.894Z,23.92
2022-11-15T10:53:33.846Z,27.90
2022-11-15T10:56:07.517Z,34.47
2022-11-15T10:58:40.156Z,29.25
2022-11-15T11:01:14.199Z,40.20
2022-11-15T11:03:44.631Z,29.45
2022-11-15T11:06:16.177Z,19.25
2022-11-15T11:08:59.669Z,24.98
2022-11-15T11:11:47.065Z,25.15
2022-11-15T11:14:24.033Z,28.27
2022-11-15T11:16:56.727Z,25.13
2022-11-15T11:19:45.723Z,27.60
2022-11-15T11:22:32.915Z,22.88
2022-11-15T11:25:18.652Z,27.40
2022-11-15T11:28:01.214Z,25.40
2022-11-15T11:30:43.089Z,32.80
2022-11-15T11:33:18.536Z,38.20
2022-11-15T11:35:56.475Z,42.63
2022-11-15T11:38:40.462Z,33.47
2022-11-15T11:41:21.058Z,34.83
2022-11-15T11:44:02.164Z,28.38
2022-11-15T11:46:55.915Z,34.50
2022-11-15T11:49:32.396Z,44.50
2022-11-15T11:52:07.357Z,35.63
2022-11-15T11:54:49.265Z,31.83
2022-11-15T11:57:30.536Z,41.17
2022-11-15T12:00:04.768Z,35.30
2022-11-15T12:02:45.617Z,46.45
2022-11-15T12:05:20.378Z,37.20
2022-11-15T12:07:51.884Z,32.83
2022-11-15T12:10:26.342Z,43.90
2022-11-15T12:13:06.487Z,41.10
2022-11-15T12:15:41.837Z,45.33
2022-11-15T12:18:14.911Z,43.85
2022-11-15T12:20:53.408Z,35.65
2022-11-15T12:23:27.658Z,42.28
2022-11-15T12:26:03.347Z,32.73
2022-11-15T12:28:52.880Z,28.02
2022-11-15T12:31:42.380Z,25.42
2022-11-15T12:34:47.256Z,40.97
2022-11-15T12:37:58.218Z,33.05
2022-11-15T12:40:33.019Z,33.22
2022-11-15T12:43:31.569Z,28.50
2022-11-15T12:46:07.776Z,30.30
2022-11-15T12:49:02.079Z,19.73
2022-11-15T12:52:08.056Z,26.15
2022-11-15T12:54:59.901Z,29.17
2022-11-15T12:57:34.731Z,24.83
2022-11-15T13:00:25.583Z,39.17
2022-11-15T13:03:19.398Z,32.20
2022-11-15T13:06:02.139Z,30.80
2022-11-15T13:08:49.410Z,24.83
2022-11-15T13:11:47.862Z,29.23
2022-11-15T13:14:46.099Z,32.03
2022-11-15T13:17:37.332Z,26.25
2022-11-15T13:20:31.570Z,26.80
2022-11-15T13:23:11.709Z,30.50
2022-11-15T13:26:17.514Z,27.38
2022-11-15T13:28:50.468Z,33.20
2022-11-15T13:31:29.950Z,37.67
2022-11-15T13:34:02.407Z,32.85
2022-11-15T13:36:35.500Z,32.95
2022-11-15T13:39:06.801Z,28.80
2022-11-15T13:41:37.025Z,41.17
2022-11-15T13:44:20.725Z,33.75
2022-11-15T13:46:49.628Z,41.80
2022-11-15T13:49:18.631Z,32.53
2022-11-15T13:51:52.542Z,27.15
2022-11-15T13:54:26.395Z,38.25
2022-11-15T13:56:59.374Z,28.30
2022-11-15T13:59:30.610Z,25.25
2022-11-15T14:02:03.435Z,28.48
2022-11-15T14:04:35.267Z,26.52
2022-11-15T14:07:05.604Z,27.60
2022-11-15T14:09:38.402Z,41.38
2022-11-15T14:12:30.258Z,30.05
2022-11-15T14:14:59.894Z,57.78
2022-11-15T14:17:40.186Z,68.10
2022-11-15T14:20:31.922Z,39.33
2022-11-15T14:23:03.534Z,32.08
2022-11-15T14:25:33.423Z,29.50
2022-11-15T14:28:16.323Z,59.35
2022-11-15T14:30:51.116Z,46.97
2022-11-15T14:33:23.467Z,51.00
2022-11-15T14:35:53.243Z,43.90
2022-11-15T14:38:23.630Z,64.20
2022-11-15T14:40:52.716Z,59.28
2022-11-15T14:43:21.545Z,60.05
2022-11-15T14:45:50.570Z,63.65
2022-11-15T14:48:19.417Z,45.40
2022-11-15T14:50:48.366Z,45.92
2022-11-15T14:53:18.816Z,43.35
2022-11-15T14:55:49.227Z,53.75
2022-11-15T14:58:18.084Z,55.33
2022-11-15T15:00:47.062Z,51.85
2022-11-15T15:03:15.934Z,59.67
2022-11-15T15:05:46.060Z,41.53
2022-11-15T15:08:15.109Z,54.05
2022-11-15T15:10:46.177Z,54.65
2022-11-15T15:13:20.509Z,78.35
2022-11-15T15:15:50.569Z,69.53
2022-11-15T15:18:20.808Z,68.28
2022-11-15T15:21:02.145Z,74.05
2022-11-15T15:23:32.111Z,65.72
2022-11-15T15:26:01.061Z,61.80
2022-11-15T15:28:34.809Z,61.80
2022-11-15T15:31:04.715Z,50.88
2022-11-15T15:33:33.605Z,59.10
2022-11-15T15:36:02.416Z,56.15
2022-11-15T15:38:31.986Z,78.78
2022-11-15T15:41:03.923Z,62.78
2022-11-15T15:43:34.304Z,59.50
2022-11-15T15:46:03.722Z,48.15
2022-11-15T15:48:34.977Z,56.67
2022-11-15T15:51:11.170Z,71.65
2022-11-15T15:53:43.137Z,52.78
2022-11-15T15:56:12.126Z,69.80
2022-11-15T15:58:42.394Z,62.60
2022-11-15T16:01:11.401Z,63.00
2022-11-15T16:03:40.377Z,84.30
2022-11-15T16:06:37.529Z,60.78
2022-11-15T16:09:16.239Z,94.88
2022-11-15T16:11:47.716Z,70.55
2022-11-15T16:14:18.026Z,66.93
2022-11-15T16:16:47.135Z,79.20
2022-11-15T16:19:16.069Z,76.43
2022-11-15T16:21:44.953Z,74.47
2022-11-15T16:24:13.851Z,63.70
2022-11-15T16:26:42.811Z,61.50
2022-11-15T16:29:12.566Z,65.20
2022-11-15T16:31:42.939Z,50.17
2022-11-15T16:34:11.802Z,70.38
2022-11-15T16:36:41.045Z,85.88
2022-11-15T16:39:14.460Z,72.38
2022-11-15T16:41:47.676Z,56.25
2022-11-15T16:44:16.830Z,64.20
2022-11-15T16:46:51.870Z,70.35
2022-11-15T16:49:21.886Z,91.63
2022-11-15T16:51:51.702Z,60.00
2022-11-15T16:54:20.713Z,56.72
2022-11-15T16:56:49.605Z,62.00
2022-11-15T16:59:20.133Z,47.42
2022-11-15T17:01:53.168Z,46.20
2022-11-15T17:04:22.762Z,45.92
2022-11-15T17:06:51.673Z,39.70
2022-11-15T17:09:24.530Z,55.92
2022-11-15T17:11:53.841Z,87.03
2022-11-15T17:14:23.263Z,62.63
2022-11-15T17:16:56.146Z,46.15
2022-11-15T17:19:25.069Z,45.88
2022-11-15T17:21:54.279Z,49.45
2022-11-15T17:24:23.290Z,48.13
2022-11-15T17:26:52.166Z,35.05
2022-11-15T17:29:21.037Z,39.38
2022-11-15T17:31:50.044Z,35.30
2022-11-15T17:34:20.385Z,36.88
2022-11-15T17:36:50.389Z,39.65
2022-11-15T17:39:20.807Z,48.75
2022-11-15T17:41:50.260Z,43.00
2022-11-15T17:44:19.207Z,32.38
2022-11-15T17:46:48.041Z,42.65
2022-11-15T17:49:16.877Z,39.47
2022-11-15T17:51:49.948Z,48.38
2022-11-15T17:54:19.383Z,65.85
2022-11-15T17:56:48.281Z,52.38
2022-11-15T17:59:21.161Z,36.67
2022-11-15T18:01:51.397Z,45.03
2022-11-15T18:04:20.653Z,42.65
2022-11-15T18:06:51.049Z,58.97
2022-11-15T18:09:21.864Z,38.55
2022-11-15T18:11:51.833Z,38.50
2022-11-15T18:14:21.216Z,39.60
2022-11-15T18:16:50.083Z,37.78
2022-11-15T18:19:18.991Z,42.85
2022-11-15T18:22:02.018Z,44.95
2022-11-15T18:24:33.854Z,42.38
2022-11-15T18:27:04.354Z,40.85
2022-11-15T18:29:34.593Z,38.10
2022-11-15T18:32:06.427Z,45.45
2022-11-15T18:34:35.316Z,64.55
2022-11-15T18:37:04.446Z,59.92
2022-11-15T18:39:34.787Z,42.70
2022-11-15T18:42:03.937Z,53.20
2022-11-15T18:44:33.031Z,68.70
2022-11-15T18:47:02.035Z,54.13
2022-11-15T18:49:31.086Z,63.60
2022-11-15T18:52:00.013Z,66.35
2022-11-15T18:54:31.473Z,50.85
2022-11-15T18:57:02.335Z,44.33
2022-11-15T18:59:31.637Z,44.30
2022-11-15T19:02:00.515Z,48.92
2022-11-15T19:04:29.773Z,47.75
2022-11-15T19:06:58.719Z,31.85
2022-11-15T19:09:32.768Z,31.45
2022-11-15T19:12:03.348Z,34.33
2022-11-15T19:14:32.407Z,39.63
2022-11-15T19:17:02.020Z,46.50
2022-11-15T19:19:31.393Z,42.70
2022-11-15T19:22:00.366Z,53.20
2022-11-15T19:24:30.194Z,52.60
2022-11-15T19:26:59.038Z,53.30
2022-11-15T19:29:29.395Z,32.10
2022-11-15T19:31:58.253Z,46.42
2022-11-15T19:34:27.068Z,31.20
2022-11-15T19:36:55.909Z,52.90
2022-11-15T19:39:24.785Z,49.10
2022-11-15T19:41:53.670Z,71.80
2022-11-15T19:44:22.839Z,53.13
2022-11-15T19:46:53.027Z,45.83
2022-11-15T19:49:22.321Z,66.20
2022-11-15T19:51:51.215Z,42.65
2022-11-15T19:54:20.051Z,46.72
2022-11-15T19:56:48.910Z,49.38
2022-11-15T19:59:17.738Z,47.20
2022-11-15T20:01:46.768Z,48.65
2022-11-15T20:04:17.109Z,36.50
2022-11-15T20:06:46.422Z,45.42
2022-11-15T20:09:17.735Z,43.38
2022-11-15T20:11:46.656Z,38.30
2022-11-15T20:14:15.586Z,34.10
2022-11-15T20:16:44.434Z,33.90
2022-11-15T20:19:15.975Z,34.42
2022-11-15T20:21:46.275Z,50.55
2022-11-15T20:24:15.321Z,46.13
2022-11-15T20:26:44.205Z,61.65
2022-11-15T20:29:13.651Z,58.45
2022-11-15T20:31:42.568Z,53.67
2022-11-15T20:34:11.619Z,61.90
2022-11-15T20:36:40.513Z,63.20
2022-11-15T20:39:10.760Z,80.25
2022-11-15T20:41:39.636Z,102.00
2022-11-15T20:44:08.521Z,176.85
2022-11-15T20:46:37.442Z,97.55
2022-11-15T20:49:06.529Z,79.38
2022-11-15T20:51:35.485Z,59.40
2022-11-15T20:54:04.915Z,40.15
2022-11-15T20:56:35.168Z,51.47
2022-11-15T20:59:04.194Z,38.26
2022-11-15T21:01:33.186Z,46.78
2022-11-15T21:04:02.165Z,55.67
2022-11-15T21:06:31.606Z,60.13
2022-11-15T21:09:17.649Z,58.20
2022-11-15T21:12:05.386Z,72.28
2022-11-15T21:14:34.305Z,54.58
2022-11-15T21:17:03.925Z,65.78
2022-11-15T21:19:36.853Z,60.50
2022-11-15T21:22:07.357Z,72.50
2022-11-15T21:24:36.270Z,45.08
2022-11-15T21:27:06.643Z,46.08
2022-11-15T21:29:38.857Z,45.00
2022-11-15T21:32:09.800Z,53.67
2022-11-15T21:34:39.043Z,52.13
2022-11-15T21:37:10.609Z,59.72
2022-11-15T21:39:39.442Z,75.72
2022-11-15T21:42:09.791Z,52.92
2022-11-15T21:44:38.671Z,52.75
2022-11-15T21:47:07.528Z,59.63
2022-11-15T21:49:36.388Z,50.08
2022-11-15T21:52:05.440Z,63.28
2022-11-15T21:54:34.286Z,54.10
2022-11-15T21:57:04.215Z,51.45
2022-11-15T21:59:34.467Z,52.88
2022-11-15T22:02:17.148Z,53.75
2022-11-15T22:04:46.030Z,48.63
2022-11-15T22:07:14.988Z,69.88
2022-11-15T22:09:44.035Z,58.72
2022-11-15T22:12:12.963Z,57.05
2022-11-15T22:14:43.218Z,43.72
2022-11-15T22:17:12.537Z,35.53
2022-11-15T22:19:52.339Z,44.40
2022-11-15T22:22:21.895Z,53.75
2022-11-15T22:24:50.872Z,54.08
2022-11-15T22:27:19.865Z,47.88
2022-11-15T22:29:50.179Z,47.55
2022-11-15T22:32:19.140Z,45.70
2022-11-15T22:34:48.142Z,43.85
2022-11-15T22:37:21.146Z,49.75
2022-11-15T22:39:50.775Z,38.15
2022-11-15T22:42:23.609Z,50.13
2022-11-15T22:44:54.615Z,42.65
2022-11-15T22:47:23.675Z,57.53
2022-11-15T22:49:52.721Z,68.53
2022-11-15T22:52:21.655Z,57.50
2022-11-15T22:54:50.646Z,52.70
2022-11-15T22:57:19.550Z,50.80
2022-11-15T22:59:48.472Z,64.10
2022-11-15T23:02:18.881Z,73.28
2022-11-15T23:04:47.904Z,46.95
2022-11-15T23:07:16.940Z,63.80
2022-11-15T23:09:51.767Z,69.60
2022-11-15T23:17:37.501Z,56.00
2022-11-15T23:20:29.466Z,79.45
2022-11-15T23:22:55.464Z,61.40
2022-11-15T23:25:24.360Z,50.80
2022-11-15T23:27:53.263Z,46.63
2022-11-15T23:30:40.042Z,59.88
2022-11-15T23:33:32.434Z,50.90
2022-11-15T23:36:01.984Z,52.85
2022-11-15T23:38:31.174Z,55.80
2022-11-15T23:41:00.330Z,76.25
2022-11-15T23:43:29.809Z,45.45
2022-11-15T23:46:00.825Z,46.22
2022-11-15T23:48:31.525Z,63.72
2022-11-15T23:51:00.724Z,55.22
2022-11-15T23:53:29.818Z,67.63
2022-11-15T23:56:03.249Z,60.85
2022-11-15T23:58:32.551Z,48.03
